Watkins Glen, New York
Current Conditions -  °F | °C
As of 4:53 AM on Friday 19 Dec 2014 (Local Time) from KELM Reporting Station
Overcast Overcast  
Wind Chill: 24°   Ceiling: 1900
Heat Index: 30°   Visibility: 10mi
Dew Point: 24°   Wind: 6mph
Humidity: 79%   Direction: 310°NW
Pressure: 30.02"   Gusts: NA
Location:  42.38°N, 76.87°W
Report Text: KELM 190953Z 31005KT 10SM OVC019 M01/M04 A3002 RMK AO2 SLP176 T10111044
Loading
Personal Weather Stations






























Interactive Weather Map New forecast layout! Learn more

10-Day Weather Forecast

Advertisements
Track Severe Weather on mobile